Time;durP1;ratioP1;P1;durP2;ratioP2;P2;SDS_P1;SDS_P2;PMS_P1;PMS_P2;Temp;Humidity;BMP_temperature;BMP_pressure;BME280_temperature;BME280_humidity;BME280_pressure;Samples;Min_cycle;Max_cycle;Signal;HPM_P1;HPM_P2
2022/11/19 00:01:09;;;;;;;15.43;7.50;;;-6.30;99.90;;;;;;5044810;28;20052;-52
2022/11/19 00:03:36;;;;;;;15.23;6.00;;;-6.30;99.90;;;;;;5054993;28;20029;-48
2022/11/19 00:06:07;;;;;;;10.03;5.53;;;-6.30;99.90;;;;;;5047195;28;20028;-47
2022/11/19 00:08:32;;;;;;;12.13;5.03;;;-6.30;99.90;;;;;;5057389;28;20025;-48
2022/11/19 00:11:13;;;;;;;14.55;6.45;;;-6.30;99.90;;;;;;5054535;28;20056;-46
2022/11/19 00:13:40;;;;;;;12.32;6.15;;;-6.40;99.90;;;;;;5026133;28;20025;-51
2022/11/19 00:16:13;;;;;;;15.95;6.57;;;-6.40;99.90;;;;;;5036965;28;20044;-45
2022/11/19 00:18:39;;;;;;;15.23;6.53;;;-6.40;99.90;;;;;;5065384;28;20524;-43
2022/11/19 00:21:12;;;;;;;15.32;6.95;;;-6.50;99.90;;;;;;5044874;28;20434;-46
2022/11/19 00:23:38;;;;;;;14.33;6.60;;;-6.50;99.90;;;;;;5062710;28;20229;-45
2022/11/19 00:26:07;;;;;;;16.08;7.28;;;-6.50;99.90;;;;;;5051847;28;20032;-44
2022/11/19 00:28:33;;;;;;;10.20;5.03;;;-6.50;99.90;;;;;;5065374;28;20477;-49
2022/11/19 00:31:04;;;;;;;10.80;5.30;;;-6.60;99.90;;;;;;5058779;28;20108;-45
2022/11/19 00:33:29;;;;;;;13.43;5.93;;;-6.60;99.90;;;;;;5065382;28;20029;-44
2022/11/19 00:35:56;;;;;;;12.27;5.80;;;-6.60;99.90;;;;;;5044243;28;20044;-44
2022/11/19 00:38:21;;;;;;;10.60;4.80;;;-6.60;99.90;;;;;;5051885;28;20082;-45
2022/11/19 00:40:47;;;;;;;11.47;5.53;;;-6.60;99.90;;;;;;5063205;28;20053;-48
2022/11/19 00:46:10;;;;;;;11.00;4.90;;;-6.70;99.90;;;;;;5013009;28;20072;-45
2022/11/19 00:48:37;;;;;;;11.37;5.63;;;-6.70;99.90;;;;;;5059012;28;20068;-46
2022/11/19 00:51:04;;;;;;;9.97;5.13;;;-6.80;99.90;;;;;;5051616;28;20378;-48
2022/11/19 00:53:29;;;;;;;9.30;4.73;;;-6.80;99.90;;;;;;5063728;28;20131;-52
2022/11/19 00:55:58;;;;;;;11.00;5.33;;;-6.80;99.90;;;;;;5054615;28;20139;-47
2022/11/19 00:58:23;;;;;;;8.90;4.70;;;-6.80;99.90;;;;;;5045453;28;20432;-48
2022/11/19 01:00:50;;;;;;;8.47;4.03;;;-6.80;99.90;;;;;;5063218;28;20074;-50
2022/11/19 01:03:16;;;;;;;12.30;5.27;;;-6.90;99.90;;;;;;5046015;28;20029;-49
2022/11/19 01:05:41;;;;;;;8.93;4.50;;;-6.90;99.90;;;;;;5046515;28;20037;-44
2022/11/19 01:08:07;;;;;;;8.93;4.03;;;-6.90;99.90;;;;;;5064658;28;20025;-45
2022/11/19 01:10:33;;;;;;;7.80;3.50;;;-6.90;99.90;;;;;;5051134;28;20447;-45
2022/11/19 01:15:49;;;;;;;10.80;4.93;;;-7.00;99.90;;;;;;5041326;28;20101;-44
2022/11/19 01:18:16;;;;;;;11.20;5.07;;;-7.00;99.90;;;;;;5036509;28;20052;-45
2022/11/19 01:20:42;;;;;;;7.17;3.70;;;-7.10;99.90;;;;;;5062758;28;20037;-44
2022/11/19 01:23:07;;;;;;;10.37;5.47;;;-7.00;99.90;;;;;;5045508;28;20040;-46
2022/11/19 01:25:33;;;;;;;15.00;6.00;;;-7.00;99.90;;;;;;5054378;28;20033;-48
2022/11/19 01:27:58;;;;;;;7.87;4.57;;;-7.00;99.90;;;;;;5065099;28;20032;-49
2022/11/19 01:30:24;;;;;;;10.90;5.07;;;-7.10;99.90;;;;;;5047982;28;20070;-51
2022/11/19 01:32:49;;;;;;;12.47;5.47;;;-7.00;99.90;;;;;;5025325;28;20112;-43
2022/11/19 01:35:15;;;;;;;9.90;5.07;;;-7.10;99.90;;;;;;5060170;28;20514;-47
2022/11/19 01:37:40;;;;;;;10.37;5.77;;;-7.10;99.90;;;;;;5065075;28;20067;-47
2022/11/19 01:40:07;;;;;;;12.90;5.90;;;-7.10;99.90;;;;;;5045770;28;20091;-46
2022/11/19 01:42:49;;;;;;;11.20;5.57;;;-7.10;99.90;;;;;;5045026;28;20033;-50
2022/11/19 01:45:28;;;;;;;8.83;5.30;;;-7.10;99.90;;;;;;5033062;28;20032;-47
2022/11/19 01:47:57;;;;;;;9.90;4.20;;;-7.10;99.90;;;;;;5050854;28;20032;-48
2022/11/19 01:50:24;;;;;;;9.32;4.60;;;-7.10;99.90;;;;;;5053372;28;20064;-44
2022/11/19 01:52:50;;;;;;;9.33;4.70;;;-7.00;99.90;;;;;;5064845;28;20234;-46
2022/11/19 01:55:18;;;;;;;10.53;4.40;;;-7.10;99.90;;;;;;5049568;28;20067;-48
2022/11/19 01:57:44;;;;;;;8.53;4.10;;;-7.10;99.90;;;;;;5068249;28;20025;-43
2022/11/19 02:00:10;;;;;;;7.07;3.53;;;-7.20;99.90;;;;;;5051053;28;20036;-47
2022/11/19 02:02:36;;;;;;;10.20;4.37;;;-7.20;99.90;;;;;;5056291;28;20041;-50
2022/11/19 02:05:02;;;;;;;11.63;4.50;;;-7.20;99.90;;;;;;5054939;28;20044;-51
2022/11/19 02:07:32;;;;;;;6.47;3.80;;;-7.30;99.90;;;;;;5048881;28;20040;-49
2022/11/19 02:10:00;;;;;;;7.77;4.10;;;-7.30;99.90;;;;;;5065603;28;20040;-46
2022/11/19 02:16:01;;;;;;;13.03;5.00;;;-7.30;99.90;;;;;;5047302;28;20559;-48
2022/11/19 02:18:32;;;;;;;9.07;3.90;;;-7.40;99.90;;;;;;5037762;28;20477;-45
2022/11/19 02:21:13;;;;;;;10.63;5.13;;;-7.40;99.90;;;;;;5043634;28;20083;-45
2022/11/19 02:23:57;;;;;;;11.33;5.27;;;-7.40;99.90;;;;;;5029340;28;20112;-49
2022/11/19 02:26:37;;;;;;;14.80;7.00;;;-7.40;99.90;;;;;;5067922;28;20556;-48
2022/11/19 02:29:12;;;;;;;10.03;5.63;;;-7.40;99.90;;;;;;5036028;28;20029;-46
2022/11/19 02:32:00;;;;;;;10.60;6.20;;;-7.40;99.90;;;;;;5068511;28;20054;-48
2022/11/19 02:34:45;;;;;;;15.67;6.60;;;-7.40;99.90;;;;;;5042283;28;20496;-48
2022/11/19 02:37:22;;;;;;;12.30;6.00;;;-7.40;99.90;;;;;;5028758;28;20025;-48
2022/11/19 02:39:55;;;;;;;13.53;6.30;;;-7.40;99.90;;;;;;5050084;28;20037;-48
2022/11/19 02:42:29;;;;;;;14.17;6.57;;;-7.40;99.90;;;;;;5070269;28;20060;-47
2022/11/19 02:45:29;;;;;;;13.80;6.87;;;-7.40;99.90;;;;;;5051881;28;20035;-50
2022/11/19 02:48:00;;;;;;;13.07;6.50;;;-7.40;99.90;;;;;;5030235;28;20068;-48
2022/11/19 02:50:31;;;;;;;13.07;5.77;;;-7.40;99.90;;;;;;5044248;28;20404;-47
2022/11/19 02:52:57;;;;;;;10.40;5.40;;;-7.40;99.90;;;;;;5045226;28;20033;-45
2022/11/19 02:55:23;;;;;;;13.77;6.37;;;-7.40;99.90;;;;;;5051542;28;20040;-46
2022/11/19 02:57:56;;;;;;;9.33;5.70;;;-7.40;99.90;;;;;;5069452;28;20088;-43
2022/11/19 03:06:03;;;;;;;14.60;6.57;;;-7.40;99.90;;;;;;5050504;28;20512;-47
2022/11/19 03:08:29;;;;;;;15.70;6.13;;;-7.50;99.90;;;;;;5027960;28;20079;-44
2022/11/19 03:11:13;;;;;;;9.07;5.37;;;-7.50;99.90;;;;;;5069869;28;20439;-47
2022/11/19 03:17:08;;;;;;;8.00;4.90;;;-7.60;99.90;;;;;;5069562;28;20042;-47
2022/11/19 03:19:45;;;;;;;12.77;6.57;;;-7.60;99.90;;;;;;5045477;28;20029;-46
2022/11/19 03:22:20;;;;;;;13.90;6.83;;;-7.60;99.90;;;;;;5029489;28;20490;-44
2022/11/19 03:25:00;;;;;;;13.63;6.78;;;-7.60;99.90;;;;;;5067046;28;20021;-45
2022/11/19 03:27:40;;;;;;;13.87;6.87;;;-7.60;99.90;;;;;;5029476;28;20086;-46
2022/11/19 03:30:08;;;;;;;10.10;5.77;;;-7.60;99.90;;;;;;5040933;28;20028;-48
2022/11/19 03:32:43;;;;;;;12.03;5.63;;;-7.60;99.90;;;;;;5068875;28;20024;-51
2022/11/19 03:35:14;;;;;;;12.75;5.78;;;-7.60;99.90;;;;;;5041063;28;20061;-48
2022/11/19 03:37:42;;;;;;;14.20;5.93;;;-7.60;99.90;;;;;;5029118;28;20072;-51
2022/11/19 03:40:11;;;;;;;16.40;6.47;;;-7.60;99.90;;;;;;5058507;28;20048;-51
2022/11/19 03:42:38;;;;;;;12.70;5.63;;;-7.60;99.90;;;;;;5068840;28;20499;-47
2022/11/19 03:45:12;;;;;;;11.37;5.77;;;-7.60;99.90;;;;;;5047473;28;20393;-48
2022/11/19 03:47:40;;;;;;;14.23;5.93;;;-7.70;99.90;;;;;;5029198;28;20029;-48
2022/11/19 03:50:23;;;;;;;9.60;5.50;;;-7.70;99.90;;;;;;5051718;28;20029;-48
2022/11/19 03:52:49;;;;;;;10.87;5.20;;;-7.70;99.90;;;;;;5028831;28;20026;-48
2022/11/19 03:55:15;;;;;;;12.00;5.47;;;-7.70;99.90;;;;;;5051051;28;20055;-46
2022/11/19 03:57:41;;;;;;;13.53;6.80;;;-7.70;99.90;;;;;;5068054;28;20029;-47
2022/11/19 04:00:07;;;;;;;14.47;6.07;;;-7.70;99.90;;;;;;5047325;28;20029;-50
2022/11/19 04:02:33;;;;;;;15.83;6.70;;;-7.70;99.90;;;;;;5067816;28;20558;-45
2022/11/19 04:04:58;;;;;;;13.67;5.57;;;-7.60;99.90;;;;;;5047157;28;20020;-47
2022/11/19 04:07:24;;;;;;;11.33;5.87;;;-7.60;99.90;;;;;;5066388;28;20078;-48
2022/11/19 04:09:50;;;;;;;8.53;4.63;;;-7.60;99.90;;;;;;5049410;28;20025;-50
2022/11/19 04:12:21;;;;;;;10.47;5.47;;;-7.60;99.90;;;;;;5055495;28;20065;-47
2022/11/19 04:14:47;;;;;;;11.63;5.03;;;-7.60;99.90;;;;;;5067204;28;20055;-54
2022/11/19 04:17:13;;;;;;;13.87;5.53;;;-7.60;99.90;;;;;;5047028;28;20095;-51
2022/11/19 04:19:39;;;;;;;10.47;5.20;;;-7.60;99.90;;;;;;5067884;28;20560;-49
2022/11/19 04:22:05;;;;;;;12.20;4.93;;;-7.50;99.90;;;;;;5047339;28;20113;-53
2022/11/19 04:24:30;;;;;;;11.00;5.57;;;-7.50;99.90;;;;;;5067979;28;20455;-51
2022/11/19 04:26:55;;;;;;;8.80;4.27;;;-7.40;99.90;;;;;;5047353;28;20044;-51
2022/11/19 04:29:21;;;;;;;10.53;4.77;;;-7.30;99.90;;;;;;5048628;28;20033;-47
2022/11/19 04:31:47;;;;;;;10.03;4.40;;;-7.20;99.90;;;;;;5060197;28;20476;-52
2022/11/19 04:34:12;;;;;;;9.80;4.33;;;-7.20;99.90;;;;;;5048557;28;20048;-53
2022/11/19 04:36:40;;;;;;;15.43;6.30;;;-7.10;99.90;;;;;;5061171;28;20401;-49
2022/11/19 04:39:07;;;;;;;10.60;5.37;;;-7.10;99.90;;;;;;5048680;28;20029;-50
2022/11/19 04:41:32;;;;;;;10.00;5.13;;;-7.10;99.90;;;;;;5060840;28;20409;-51
2022/11/19 04:43:58;;;;;;;8.40;4.43;;;-7.10;99.90;;;;;;5048538;28;20029;-51
2022/11/19 04:46:24;;;;;;;11.57;4.97;;;-7.10;99.90;;;;;;5063262;28;20112;-50
2022/11/19 04:48:49;;;;;;;14.03;5.33;;;-7.10;99.90;;;;;;5048777;28;20025;-51
2022/11/19 04:51:14;;;;;;;11.90;4.60;;;-7.10;99.90;;;;;;5064588;28;20043;-52
2022/11/19 04:53:40;;;;;;;10.10;4.70;;;-7.00;99.90;;;;;;5047060;28;20477;-50
2022/11/19 04:56:06;;;;;;;14.10;5.60;;;-7.10;99.90;;;;;;5067330;28;20032;-49
2022/11/19 04:58:32;;;;;;;11.17;4.80;;;-7.00;99.90;;;;;;5027175;28;20397;-48
2022/11/19 05:00:58;;;;;;;10.33;5.33;;;-7.00;99.90;;;;;;5067019;28;20027;-50
2022/11/19 05:03:23;;;;;;;13.57;4.63;;;-7.10;99.90;;;;;;5046887;28;20033;-53
2022/11/19 05:05:49;;;;;;;12.50;5.07;;;-7.10;99.90;;;;;;5065055;28;20070;-52
2022/11/19 05:08:14;;;;;;;14.20;5.50;;;-7.10;99.90;;;;;;5046949;28;20079;-50
2022/11/19 05:10:40;;;;;;;15.30;4.77;;;-7.10;99.90;;;;;;5067337;28;20029;-53
2022/11/19 05:13:05;;;;;;;11.67;5.30;;;-7.10;99.90;;;;;;5046853;28;20078;-48
2022/11/19 05:15:31;;;;;;;8.60;4.03;;;-7.10;99.90;;;;;;5067633;28;20032;-45
2022/11/19 05:17:56;;;;;;;8.37;4.73;;;-7.10;99.90;;;;;;5046885;28;20037;-48
2022/11/19 05:20:22;;;;;;;7.87;4.23;;;-7.10;99.90;;;;;;5067132;28;20041;-46
2022/11/19 05:22:47;;;;;;;13.53;5.40;;;-7.10;99.90;;;;;;5045507;28;20102;-44
2022/11/19 05:25:13;;;;;;;11.17;5.23;;;-7.10;99.90;;;;;;5067325;28;20028;-43
2022/11/19 05:27:38;;;;;;;14.63;5.40;;;-7.10;99.90;;;;;;5046753;28;20035;-44
2022/11/19 05:30:04;;;;;;;10.10;4.77;;;-7.10;99.90;;;;;;5068047;28;20726;-44
2022/11/19 05:32:30;;;;;;;12.83;5.13;;;-7.10;99.90;;;;;;5050522;28;20056;-43
2022/11/19 05:34:55;;;;;;;12.70;5.07;;;-7.10;99.90;;;;;;5071091;28;20036;-43
2022/11/19 05:37:21;;;;;;;11.73;4.90;;;-7.10;99.90;;;;;;5050403;28;20037;-46
2022/11/19 05:39:46;;;;;;;12.03;4.93;;;-7.10;99.90;;;;;;5067520;28;20044;-48
2022/11/19 05:42:12;;;;;;;10.00;4.70;;;-7.10;99.90;;;;;;5050102;28;20028;-49
2022/11/19 05:44:37;;;;;;;12.27;5.27;;;-7.10;99.90;;;;;;5070856;28;20036;-44
2022/11/19 05:47:03;;;;;;;12.37;4.93;;;-7.10;99.90;;;;;;5050256;28;20107;-45
2022/11/19 05:49:28;;;;;;;12.20;5.13;;;-7.10;99.90;;;;;;5069354;28;20038;-49
2022/11/19 05:51:53;;;;;;;5.97;3.73;;;-7.00;99.90;;;;;;5050203;28;20069;-45
2022/11/19 05:54:19;;;;;;;13.40;5.17;;;-7.10;99.90;;;;;;5050283;28;20388;-45
2022/11/19 05:56:44;;;;;;;14.97;6.27;;;-7.10;99.90;;;;;;5063449;28;20090;-51
2022/11/19 05:59:10;;;;;;;12.20;5.83;;;-7.00;99.90;;;;;;5051357;28;20428;-45
2022/11/19 06:01:35;;;;;;;12.68;4.90;;;-7.00;99.90;;;;;;5064635;28;20037;-45
2022/11/19 06:04:01;;;;;;;13.83;5.53;;;-7.00;99.90;;;;;;5051385;28;20396;-49
2022/11/19 06:06:26;;;;;;;12.47;5.40;;;-7.00;99.90;;;;;;5063629;28;20591;-49
2022/11/19 06:08:52;;;;;;;12.10;5.57;;;-7.00;99.90;;;;;;5051444;28;20029;-45
2022/11/19 06:14:01;;;;;;;9.83;4.83;;;-7.00;99.90;;;;;;5051120;28;20515;-48
2022/11/19 06:16:27;;;;;;;10.60;4.97;;;-7.00;99.90;;;;;;5065453;28;20041;-44
2022/11/19 06:18:53;;;;;;;11.13;5.90;;;-6.90;99.90;;;;;;5049672;28;20052;-43
2022/11/19 06:21:19;;;;;;;11.13;5.00;;;-6.90;99.90;;;;;;5066524;28;20029;-49
2022/11/19 06:23:44;;;;;;;9.73;4.77;;;-6.80;99.90;;;;;;5050796;28;20409;-46
2022/11/19 06:26:10;;;;;;;14.00;6.10;;;-6.70;99.90;;;;;;5066340;28;20525;-43
2022/11/19 06:28:36;;;;;;;9.30;4.87;;;-6.60;99.90;;;;;;5050816;28;20044;-45
2022/11/19 06:31:02;;;;;;;12.50;5.30;;;-6.60;99.90;;;;;;5068517;28;20028;-46
2022/11/19 06:33:27;;;;;;;9.73;5.75;;;-6.50;99.90;;;;;;5049239;28;20049;-44
2022/11/19 06:35:53;;;;;;;17.40;6.13;;;-6.40;99.90;;;;;;5069624;28;20075;-50
2022/11/19 06:38:19;;;;;;;11.47;5.80;;;-6.30;99.90;;;;;;5049320;28;20407;-48
2022/11/19 06:40:45;;;;;;;17.77;6.37;;;-6.20;99.90;;;;;;5069323;28;20052;-45
2022/11/19 06:43:10;;;;;;;13.45;5.20;;;-6.20;99.90;;;;;;5049250;28;20029;-51
2022/11/19 06:45:36;;;;;;;15.90;6.80;;;-6.10;99.90;;;;;;5069859;28;20660;-44
2022/11/19 06:48:02;;;;;;;14.77;6.10;;;-6.00;99.90;;;;;;5049226;28;20456;-43
2022/11/19 06:50:28;;;;;;;16.40;6.57;;;-6.00;99.90;;;;;;5069578;28;20027;-42
2022/11/19 06:52:53;;;;;;;10.18;5.60;;;-5.90;99.90;;;;;;5045723;28;20029;-48
2022/11/19 06:55:19;;;;;;;15.93;6.82;;;-5.90;99.90;;;;;;5045735;28;20543;-42
2022/11/19 06:57:44;;;;;;;16.08;6.63;;;-5.80;99.90;;;;;;5051826;28;20102;-45
2022/11/19 07:00:12;;;;;;;13.77;6.47;;;-5.70;99.90;;;;;;5052858;28;20118;-47
2022/11/19 07:02:38;;;;;;;10.70;5.68;;;-5.60;99.90;;;;;;5050934;28;20025;-43
2022/11/19 07:05:04;;;;;;;14.50;7.20;;;-5.50;99.90;;;;;;5051406;28;20054;-42
2022/11/19 07:07:30;;;;;;;16.65;7.35;;;-5.40;99.90;;;;;;5046282;28;20515;-43
2022/11/19 07:09:56;;;;;;;13.18;6.97;;;-5.30;99.90;;;;;;5047761;28;20045;-42
2022/11/19 07:12:21;;;;;;;11.88;5.95;;;-5.20;99.90;;;;;;5050121;28;20021;-48
2022/11/19 07:14:47;;;;;;;11.95;6.18;;;-5.10;99.90;;;;;;5047710;28;20623;-48
2022/11/19 07:17:12;;;;;;;15.10;7.32;;;-5.00;99.90;;;;;;5066388;28;20064;-45
2022/11/19 07:19:38;;;;;;;17.67;8.30;;;-4.80;99.90;;;;;;5045896;28;20043;-49
2022/11/19 07:22:03;;;;;;;15.40;7.32;;;-4.70;99.90;;;;;;5053569;28;20048;-46
2022/11/19 07:24:29;;;;;;;19.58;9.00;;;-4.60;99.90;;;;;;5046542;28;20095;-44
2022/11/19 07:26:55;;;;;;;21.23;9.60;;;-4.50;99.90;;;;;;5066734;28;20040;-47
2022/11/19 07:29:20;;;;;;;19.85;9.50;;;-4.40;99.90;;;;;;5045890;28;20028;-47
2022/11/19 07:31:49;;;;;;;19.80;8.88;;;-4.30;99.90;;;;;;5054468;28;20044;-48
2022/11/19 07:34:15;;;;;;;23.20;9.40;;;-4.20;99.90;;;;;;5049701;28;20032;-43
2022/11/19 07:36:41;;;;;;;21.95;10.77;;;-4.00;99.90;;;;;;5058123;28;20322;-49
2022/11/19 07:39:07;;;;;;;27.00;11.07;;;-3.90;99.90;;;;;;5049413;28;20119;-43
2022/11/19 07:44:17;;;;;;;22.05;9.82;;;-3.70;99.90;;;;;;5042437;28;20068;-44
2022/11/19 07:46:43;;;;;;;25.88;11.65;;;-3.60;99.90;;;;;;5066357;28;20044;-48
2022/11/19 07:49:09;;;;;;;22.42;10.45;;;-3.50;99.90;;;;;;5031014;28;20039;-49
2022/11/19 07:51:35;;;;;;;23.05;10.38;;;-3.40;99.90;;;;;;5065560;28;20037;-45
2022/11/19 07:54:00;;;;;;;22.10;10.40;;;-3.20;99.90;;;;;;5044211;28;20029;-48
2022/11/19 07:56:26;;;;;;;20.48;9.88;;;-3.10;99.90;;;;;;5054558;28;20029;-43
2022/11/19 07:58:52;;;;;;;23.73;10.57;;;-3.00;99.90;;;;;;5044388;28;20078;-43
2022/11/19 08:01:20;;;;;;;23.23;10.93;;;-2.90;99.90;;;;;;5034844;28;20603;-48
2022/11/19 08:03:47;;;;;;;17.88;8.52;;;-2.80;99.90;;;;;;5052137;28;20033;-43
2022/11/19 08:06:15;;;;;;;18.77;9.27;;;-2.70;99.90;;;;;;5050576;28;20037;-46
2022/11/19 08:08:41;;;;;;;19.88;10.18;;;-2.50;99.90;;;;;;5053732;28;20108;-42
2022/11/19 08:11:08;;;;;;;22.45;10.77;;;-2.40;99.90;;;;;;5063447;28;20028;-46
2022/11/19 08:13:34;;;;;;;18.48;9.52;;;-2.30;99.90;;;;;;5043216;28;20395;-48
2022/11/19 08:16:01;;;;;;;20.67;10.50;;;-2.20;99.90;;;;;;5065637;28;20135;-48
2022/11/19 08:18:27;;;;;;;18.85;9.73;;;-2.10;99.90;;;;;;5039728;28;20029;-42
2022/11/19 08:20:53;;;;;;;16.38;9.23;;;-2.00;99.90;;;;;;5042741;28;20062;-44
2022/11/19 08:23:18;;;;;;;16.40;8.75;;;-1.90;99.90;;;;;;5047661;28;20033;-43
2022/11/19 08:25:44;;;;;;;17.67;8.68;;;-1.80;99.90;;;;;;5049609;28;20052;-42
2022/11/19 08:28:10;;;;;;;14.00;8.13;;;-1.70;99.90;;;;;;5047279;28;20082;-45
2022/11/19 08:30:39;;;;;;;14.48;8.60;;;-1.60;99.90;;;;;;5050549;28;20036;-44
2022/11/19 08:33:05;;;;;;;18.60;9.57;;;-1.40;99.90;;;;;;5065950;28;20021;-43
2022/11/19 08:35:31;;;;;;;20.75;11.48;;;-1.30;99.90;;;;;;5045821;28;20033;-45
2022/11/19 08:37:57;;;;;;;19.75;9.50;;;-1.10;99.90;;;;;;5049899;28;20025;-44
2022/11/19 08:40:23;;;;;;;18.92;9.15;;;-0.90;99.90;;;;;;5045162;28;20121;-42
2022/11/19 08:43:01;;;;;;;18.67;9.07;;;-0.70;99.90;;;;;;5066468;28;20656;-47
2022/11/19 08:45:28;;;;;;;30.00;8.40;;;-0.60;99.90;;;;;;5044619;28;20029;-45
2022/11/19 08:47:54;;;;;;;12.40;6.93;;;-0.50;99.90;;;;;;5066459;28;20135;-42
2022/11/19 08:50:20;;;;;;;13.77;8.10;;;-0.40;99.90;;;;;;5045794;28;20029;-44
2022/11/19 08:52:52;;;;;;;18.58;8.25;;;-0.20;99.90;;;;;;5066735;28;20040;-49
2022/11/19 08:55:18;;;;;;;12.50;7.28;;;-0.10;99.90;;;;;;5037010;28;20507;-46
2022/11/19 08:57:43;;;;;;;13.02;7.35;;;0.00;99.90;;;;;;5066175;28;20103;-44
2022/11/19 09:00:09;;;;;;;16.05;7.18;;;0.00;99.90;;;;;;5054461;28;20066;-43
2022/11/19 09:02:35;;;;;;;16.75;9.05;;;0.10;99.90;;;;;;5047810;28;20036;-43
2022/11/19 09:05:00;;;;;;;19.20;8.85;;;0.10;99.90;;;;;;5063731;28;20032;-44
2022/11/19 09:07:27;;;;;;;15.93;8.80;;;0.10;99.90;;;;;;5051603;28;20052;-42
2022/11/19 09:09:52;;;;;;;19.83;8.85;;;0.10;99.90;;;;;;5060409;28;20027;-43
2022/11/19 09:12:18;;;;;;;14.32;7.93;;;0.10;99.90;;;;;;5070251;28;20111;-45
2022/11/19 09:14:43;;;;;;;10.40;6.47;;;0.10;99.90;;;;;;5049144;28;20029;-44
2022/11/19 09:17:08;;;;;;;12.73;7.78;;;0.20;99.90;;;;;;5051219;28;20227;-43
2022/11/19 09:19:34;;;;;;;12.13;6.90;;;0.20;99.90;;;;;;5056677;28;20032;-42
2022/11/19 09:21:59;;;;;;;16.08;7.75;;;0.20;99.90;;;;;;5070959;28;20073;-44
2022/11/19 09:24:25;;;;;;;13.48;7.05;;;0.20;99.90;;;;;;5049602;28;20037;-45
2022/11/19 09:26:50;;;;;;;15.38;7.28;;;0.20;99.90;;;;;;5048737;28;20037;-42
2022/11/19 09:29:16;;;;;;;13.38;7.05;;;0.20;99.90;;;;;;5054978;28;20392;-47
2022/11/19 09:31:41;;;;;;;13.75;7.03;;;0.30;99.90;;;;;;5047704;28;20043;-46
2022/11/19 09:34:07;;;;;;;11.48;6.43;;;0.30;99.90;;;;;;5069979;28;20542;-42
2022/11/19 09:36:32;;;;;;;12.80;6.70;;;0.30;99.90;;;;;;5049413;28;20027;-42
2022/11/19 09:38:58;;;;;;;11.75;6.63;;;0.40;99.90;;;;;;5069817;28;20516;-44
2022/11/19 09:41:44;;;;;;;11.80;6.18;;;0.40;99.90;;;;;;5049526;28;20045;-43
2022/11/19 09:44:15;;;;;;;;;;;0.40;99.90;;;;;;5031253;28;20036;-46
2022/11/19 09:46:53;;;;;;;13.07;5.57;;;0.50;99.90;;;;;;5051414;28;20416;-47
2022/11/19 09:49:29;;;;;;;11.40;5.95;;;0.60;99.90;;;;;;5048952;28;20032;-47
2022/11/19 09:52:02;;;;;;;12.50;6.13;;;0.60;99.90;;;;;;5048603;28;20580;-44
2022/11/19 09:54:28;;;;;;;10.30;5.38;;;0.70;99.90;;;;;;5030469;28;20041;-43
2022/11/19 09:56:54;;;;;;;11.13;5.60;;;0.70;99.90;;;;;;5051226;28;20033;-45
2022/11/19 09:59:30;;;;;;;9.73;5.15;;;0.80;99.90;;;;;;5069168;28;20112;-42
2022/11/19 10:01:56;;;;;;;8.55;5.32;;;0.90;99.90;;;;;;5046974;28;20024;-46
2022/11/19 10:04:25;;;;;;;9.02;5.63;;;1.00;99.90;;;;;;5069284;28;20041;-46
2022/11/19 10:07:17;;;;;;;11.02;5.70;;;1.10;99.90;;;;;;5045347;28;20045;-47
2022/11/19 10:10:21;;;;;;;10.18;5.60;;;1.20;99.90;;;;;;5021899;28;20037;-49
2022/11/19 10:13:10;;;;;;;11.75;5.35;;;1.20;99.90;;;;;;5046180;28;20033;-49
2022/11/19 10:15:58;;;;;;;8.27;5.18;;;1.30;99.90;;;;;;5031215;28;20494;-48
2022/11/19 10:18:40;;;;;;;14.80;5.45;;;1.40;99.90;;;;;;5050000;28;20031;-47
2022/11/19 10:21:38;;;;;;;10.77;6.18;;;1.40;99.90;;;;;;5037660;28;20037;-46
2022/11/19 10:24:17;;;;;;;10.02;6.00;;;1.50;99.90;;;;;;5046037;28;20110;-49
2022/11/19 10:26:55;;;;;;;6.72;4.30;;;1.50;99.90;;;;;;5030139;28;20623;-46
2022/11/19 10:29:24;;;;;;;10.00;5.32;;;1.50;99.90;;;;;;5061562;28;20025;-51
2022/11/19 10:31:50;;;;;;;7.32;4.30;;;1.50;99.90;;;;;;5049552;28;20603;-46
2022/11/19 10:34:26;;;;;;;8.45;5.22;;;1.60;99.90;;;;;;5066478;28;20085;-50
2022/11/19 10:37:00;;;;;;;8.60;4.88;;;1.70;99.90;;;;;;5059699;28;20017;-48
2022/11/19 10:39:43;;;;;;;8.70;4.95;;;1.80;99.20;;;;;;5033451;28;20045;-46
2022/11/19 10:42:32;;;;;;;7.55;4.03;;;1.90;97.10;;;;;;5068957;28;20032;-46
2022/11/19 10:45:18;;;;;;;7.68;4.40;;;2.10;98.20;;;;;;5050841;28;20766;-44
2022/11/19 10:48:09;;;;;;;5.47;3.22;;;2.20;96.80;;;;;;5029261;28;20036;-47
2022/11/19 10:50:34;;;;;;;5.28;3.20;;;2.30;94.60;;;;;;5044209;28;20043;-44
2022/11/19 10:53:28;;;;;;;3.72;2.47;;;2.40;90.40;;;;;;5068578;28;20032;-49
2022/11/19 10:56:08;;;;;;;5.80;3.22;;;2.50;87.00;;;;;;5052238;28;20512;-44
2022/11/19 10:58:34;;;;;;;4.80;2.35;;;2.50;87.40;;;;;;5068233;28;20077;-44
2022/11/19 11:01:02;;;;;;;5.88;2.70;;;2.60;83.10;;;;;;5029328;28;20485;-44
2022/11/19 11:03:50;;;;;;;3.90;2.47;;;2.50;83.70;;;;;;5068578;28;20024;-44
2022/11/19 11:06:16;;;;;;;4.95;2.90;;;2.60;79.00;;;;;;5044741;28;20112;-46
2022/11/19 11:08:53;;;;;;;4.93;2.85;;;2.60;79.30;;;;;;5046836;28;20476;-44
2022/11/19 11:14:50;;;;;;;7.15;3.05;;;2.70;75.90;;;;;;5048015;28;20021;-49
2022/11/19 11:16:58;;;;;;;3.95;2.38;;;2.70;80.40;;;;;;5048924;28;20187;-45
2022/11/19 11:19:24;;;;;;;4.47;2.60;;;2.70;79.30;;;;;;5059246;28;20557;-46
2022/11/19 11:21:54;;;;;;;3.40;2.50;;;2.80;79.30;;;;;;5048778;28;20025;-44
2022/11/19 11:24:20;;;;;;;4.60;2.88;;;2.80;83.10;;;;;;5060044;28;20025;-44
2022/11/19 11:26:45;;;;;;;4.43;2.70;;;2.80;83.60;;;;;;5048725;28;20078;-47
2022/11/19 11:29:11;;;;;;;3.72;2.65;;;2.80;80.70;;;;;;5060749;28;20107;-48
2022/11/19 11:31:38;;;;;;;4.47;2.42;;;2.90;80.90;;;;;;5048624;28;20021;-44
2022/11/19 11:34:06;;;;;;;4.15;2.42;;;2.80;81.30;;;;;;5061744;28;20028;-49
2022/11/19 11:36:34;;;;;;;2.95;2.00;;;2.80;81.60;;;;;;5048229;28;20487;-45
2022/11/19 11:39:02;;;;;;;4.20;2.53;;;2.90;82.20;;;;;;5062287;28;20036;-43
2022/11/19 11:41:35;;;;;;;3.85;2.65;;;2.80;81.10;;;;;;5048358;28;20076;-46
2022/11/19 11:44:14;;;;;;;3.65;2.13;;;2.80;80.80;;;;;;5062704;28;20023;-53
2022/11/19 11:46:55;;;;;;;3.25;2.20;;;2.90;75.80;;;;;;5048502;28;20065;-43
2022/11/19 11:50:16;;;;;;;4.82;2.70;;;3.00;80.50;;;;;;5059008;28;20033;-48
2022/11/19 11:52:46;;;;;;;3.10;2.38;;;3.10;79.10;;;;;;5013452;28;20103;-45
2022/11/19 11:55:24;;;;;;;5.63;2.60;;;3.20;77.70;;;;;;5052370;28;20033;-47
2022/11/19 11:57:53;;;;;;;3.28;2.38;;;3.40;83.60;;;;;;5067129;28;20123;-47
2022/11/19 12:00:42;;;;;;;3.70;2.40;;;3.50;81.30;;;;;;5045832;28;20622;-43
2022/11/19 12:03:13;;;;;;;3.90;2.95;;;3.60;80.30;;;;;;5067506;28;20427;-48
2022/11/19 12:05:59;;;;;;;5.15;2.72;;;3.60;79.50;;;;;;5051088;28;20020;-46
2022/11/19 12:08:49;;;;;;;3.70;2.28;;;3.70;81.30;;;;;;5028152;28;20108;-50
2022/11/19 12:11:56;;;;;;;5.93;3.00;;;3.80;75.80;;;;;;5028115;28;20041;-50
2022/11/19 12:14:24;;;;;;;4.03;2.80;;;3.80;77.90;;;;;;5032602;28;20478;-43
2022/11/19 12:17:09;;;;;;;5.18;3.13;;;3.80;79.50;;;;;;5047928;28;20057;-45
2022/11/19 12:20:02;;;;;;;5.97;3.33;;;3.70;79.00;;;;;;5033956;28;20029;-46
2022/11/19 12:22:39;;;;;;;5.20;3.22;;;3.70;82.70;;;;;;5027751;28;20032;-46
2022/11/19 12:25:20;;;;;;;7.07;3.25;;;3.70;82.10;;;;;;5038387;28;20643;-46
2022/11/19 12:28:15;;;;;;;6.00;3.22;;;3.70;80.50;;;;;;5027859;28;20029;-50
2022/11/19 12:30:59;;;;;;;5.32;3.08;;;3.60;81.70;;;;;;5029415;28;20163;-48
2022/11/19 12:33:32;;;;;;;4.95;3.05;;;3.60;83.60;;;;;;5044018;28;20028;-47
2022/11/19 12:36:16;;;;;;;7.22;3.85;;;3.60;86.60;;;;;;5035258;28;20040;-50
2022/11/19 12:38:51;;;;;;;5.75;3.40;;;3.50;89.20;;;;;;5036384;28;20028;-46
2022/11/19 12:42:08;;;;;;;5.05;3.28;;;3.50;91.20;;;;;;5054222;28;20075;-47
2022/11/19 12:44:49;;;;;;;4.50;3.10;;;3.40;92.30;;;;;;5017326;28;20059;-43
2022/11/19 12:47:34;;;;;;;5.22;3.38;;;3.30;95.00;;;;;;5039829;28;20056;-46
2022/11/19 12:50:33;;;;;;;4.35;2.97;;;3.20;97.70;;;;;;5038510;28;20689;-49
2022/11/19 12:53:23;;;;;;;5.53;3.45;;;3.10;99.90;;;;;;5049670;28;20048;-50
2022/11/19 12:55:58;;;;;;;8.45;4.40;;;3.00;99.90;;;;;;5054033;28;20055;-46
2022/11/19 12:58:44;;;;;;;7.00;3.63;;;3.00;99.90;;;;;;5044864;28;20021;-46
2022/11/19 13:01:17;;;;;;;4.93;3.50;;;2.90;99.90;;;;;;5043696;28;20488;-47
2022/11/19 13:04:10;;;;;;;5.97;3.30;;;2.90;99.90;;;;;;5027320;28;20041;-45
2022/11/19 13:07:00;;;;;;;6.97;3.63;;;2.80;99.90;;;;;;5034377;28;20627;-43
2022/11/19 13:09:37;;;;;;;8.38;4.00;;;2.80;99.90;;;;;;5024621;28;20043;-45
2022/11/19 13:12:13;;;;;;;6.28;3.55;;;2.80;99.90;;;;;;5045334;28;20021;-43
2022/11/19 13:14:41;;;;;;;6.20;3.90;;;2.80;99.90;;;;;;5038148;28;20032;-49
2022/11/19 13:17:36;;;;;;;9.38;4.38;;;2.70;99.90;;;;;;5042528;28;20095;-50
2022/11/19 13:20:28;;;;;;;8.82;4.53;;;2.80;99.90;;;;;;5035219;28;20037;-46
2022/11/19 13:22:58;;;;;;;8.30;4.38;;;2.80;99.90;;;;;;5044812;28;20040;-44
2022/11/19 13:26:04;;;;;;;9.07;5.22;;;2.80;99.90;;;;;;5053498;28;20714;-47
2022/11/19 13:28:37;;;;;;;10.20;4.68;;;2.80;99.90;;;;;;5062750;28;20059;-43